Time;durP1;ratioP1;P1;durP2;ratioP2;P2;SDS_P1;SDS_P2;PMS_P1;PMS_P2;Temp;Humidity;BMP_temperature;BMP_pressure;BME280_temperature;BME280_humidity;BME280_pressure;Samples;Min_cycle;Max_cycle;Signal;HPM_P1;HPM_P2
2023/12/13 00:02:11;;;;;;;15.90;14.38;;;;;;;;;;5080235;28;20048;-73
2023/12/13 00:04:41;;;;;;;14.15;12.82;;;;;;;;;;5077827;28;20821;-74
2023/12/13 00:07:11;;;;;;;13.45;12.52;;;;;;;;;;5079707;28;20050;-74
2023/12/13 00:09:42;;;;;;;18.20;14.40;;;;;;;;;;5079856;28;20056;-74
2023/12/13 00:12:13;;;;;;;15.50;14.23;;;;;;;;;;5079719;28;20067;-73
2023/12/13 00:14:43;;;;;;;14.50;13.55;;;;;;;;;;5078133;28;20050;-74
2023/12/13 00:17:14;;;;;;;15.25;13.82;;;;;;;;;;5079586;28;20426;-74
2023/12/13 00:19:45;;;;;;;14.85;13.55;;;;;;;;;;5078990;28;20055;-75
2023/12/13 00:22:16;;;;;;;14.18;12.88;;;;;;;;;;5079399;28;20055;-74
2023/12/13 00:24:47;;;;;;;13.20;12.18;;;;;;;;;;5080009;28;20060;-74
2023/12/13 00:27:17;;;;;;;13.15;12.13;;;;;;;;;;5079206;28;20044;-73
2023/12/13 00:29:47;;;;;;;12.82;11.70;;;;;;;;;;5079706;28;20521;-72
2023/12/13 00:32:17;;;;;;;22.75;12.25;;;;;;;;;;5079400;28;20824;-74
2023/12/13 00:34:47;;;;;;;11.38;9.85;;;;;;;;;;5078952;28;20044;-77
2023/12/13 00:37:17;;;;;;;12.15;11.15;;;;;;;;;;5079379;28;20052;-73
2023/12/13 00:39:48;;;;;;;12.88;11.90;;;;;;;;;;5079063;28;20052;-73
2023/12/13 00:42:18;;;;;;;13.43;11.93;;;;;;;;;;5079033;28;20040;-73
2023/12/13 00:44:49;;;;;;;13.05;11.85;;;;;;;;;;5077739;28;20051;-73
2023/12/13 00:47:19;;;;;;;13.43;12.25;;;;;;;;;;5079024;28;20055;-74
2023/12/13 00:49:49;;;;;;;12.43;11.18;;;;;;;;;;5077953;28;20063;-74
2023/12/13 00:52:19;;;;;;;13.15;11.95;;;;;;;;;;5078920;28;20046;-74
2023/12/13 00:54:50;;;;;;;12.55;11.65;;;;;;;;;;5078836;28;20417;-73
2023/12/13 00:57:20;;;;;;;15.00;13.73;;;;;;;;;;5077231;28;20584;-74
2023/12/13 00:59:51;;;;;;;11.68;10.75;;;;;;;;;;5078846;28;20419;-75
2023/12/13 01:02:21;;;;;;;12.80;11.60;;;;;;;;;;5078611;28;20766;-74
2023/12/13 01:04:51;;;;;;;12.25;11.40;;;;;;;;;;5081185;28;20052;-74
2023/12/13 01:07:23;;;;;;;12.55;11.30;;;;;;;;;;5081175;28;20048;-74
2023/12/13 01:09:55;;;;;;;11.18;10.15;;;;;;;;;;5081176;28;20050;-74
2023/12/13 01:12:26;;;;;;;10.75;9.93;;;;;;;;;;5081225;28;20036;-79
2023/12/13 01:14:56;;;;;;;11.98;11.20;;;;;;;;;;5081907;28;20097;-74
2023/12/13 01:17:26;;;;;;;11.23;10.45;;;;;;;;;;5080992;28;20040;-74
2023/12/13 01:19:57;;;;;;;12.52;11.43;;;;;;;;;;5080238;28;20040;-73
2023/12/13 01:22:30;;;;;;;13.73;12.32;;;;;;;;;;5077355;28;20060;-74
2023/12/13 01:25:01;;;;;;;10.25;9.55;;;;;;;;;;5079577;28;20656;-74
2023/12/13 01:27:32;;;;;;;13.52;12.35;;;;;;;;;;5084185;28;20052;-74
2023/12/13 01:30:03;;;;;;;11.18;10.48;;;;;;;;;;5085333;28;20048;-73
2023/12/13 01:32:33;;;;;;;13.18;12.32;;;;;;;;;;5083858;28;21116;-76
2023/12/13 01:35:05;;;;;;;12.45;11.68;;;;;;;;;;5083611;28;20052;-74
2023/12/13 01:37:35;;;;;;;11.82;10.75;;;;;;;;;;5085226;28;20044;-73
2023/12/13 01:40:07;;;;;;;11.65;10.95;;;;;;;;;;5085074;28;20048;-74
2023/12/13 01:42:39;;;;;;;11.50;10.57;;;;;;;;;;5085078;28;20404;-74
2023/12/13 01:45:09;;;;;;;11.60;10.68;;;;;;;;;;5084716;28;20499;-73
2023/12/13 01:47:39;;;;;;;11.80;10.73;;;;;;;;;;5085181;28;20044;-74
2023/12/13 01:50:10;;;;;;;11.57;10.68;;;;;;;;;;5085567;28;20051;-74
2023/12/13 01:52:40;;;;;;;11.13;10.32;;;;;;;;;;5085378;28;20078;-74
2023/12/13 01:55:12;;;;;;;10.45;9.40;;;;;;;;;;5084827;28;20060;-74
2023/12/13 01:57:42;;;;;;;10.45;9.57;;;;;;;;;;5084306;28;20490;-73
2023/12/13 02:00:13;;;;;;;12.13;10.95;;;;;;;;;;5084604;28;20056;-74
2023/12/13 02:02:46;;;;;;;12.70;11.90;;;;;;;;;;5084691;28;20062;-74
2023/12/13 02:05:17;;;;;;;12.98;11.70;;;;;;;;;;5085070;28;20490;-73
2023/12/13 02:07:48;;;;;;;13.45;12.50;;;;;;;;;;5084334;28;20048;-74
2023/12/13 02:10:18;;;;;;;13.32;12.32;;;;;;;;;;5084703;28;20417;-87
2023/12/13 02:12:50;;;;;;;11.65;10.70;;;;;;;;;;5085264;28;20517;-74
2023/12/13 02:15:22;;;;;;;9.55;8.85;;;;;;;;;;5083156;28;20422;-74
2023/12/13 02:17:53;;;;;;;11.43;10.45;;;;;;;;;;5084358;28;20048;-74
2023/12/13 02:20:23;;;;;;;12.25;11.23;;;;;;;;;;5084221;28;20059;-74
2023/12/13 02:22:54;;;;;;;12.48;11.57;;;;;;;;;;5084639;28;20051;-73
2023/12/13 02:26:05;;;;;;;11.02;9.77;;;;;;;;;;5084505;28;20502;-74
2023/12/13 02:28:36;;;;;;;12.63;11.82;;;;;;;;;;5001025;28;20473;-73
2023/12/13 02:31:08;;;;;;;11.75;10.52;;;;;;;;;;5001189;28;20057;-74
2023/12/13 02:33:40;;;;;;;10.82;10.02;;;;;;;;;;5048235;28;20051;-73
2023/12/13 02:36:11;;;;;;;10.93;10.23;;;;;;;;;;5084316;28;20067;-73
2023/12/13 02:38:42;;;;;;;11.70;10.85;;;;;;;;;;5083350;28;20047;-73
2023/12/13 02:41:12;;;;;;;10.82;10.13;;;;;;;;;;5084832;28;20055;-73
2023/12/13 02:43:43;;;;;;;12.32;11.45;;;;;;;;;;5085587;28;20047;-73
2023/12/13 02:46:13;;;;;;;14.02;13.18;;;;;;;;;;5084044;28;20048;-74
2023/12/13 02:48:43;;;;;;;11.65;10.88;;;;;;;;;;5084046;28;20044;-73
2023/12/13 02:51:13;;;;;;;11.85;11.07;;;;;;;;;;5084175;28;20048;-73
2023/12/13 02:53:44;;;;;;;11.48;10.68;;;;;;;;;;5083388;28;20048;-73
2023/12/13 02:56:16;;;;;;;11.75;10.95;;;;;;;;;;5083682;28;20051;-73
2023/12/13 02:58:46;;;;;;;10.50;9.63;;;;;;;;;;5083958;28;20447;-73
2023/12/13 03:01:18;;;;;;;11.57;10.70;;;;;;;;;;5083776;28;20415;-73
2023/12/13 03:03:48;;;;;;;12.00;11.02;;;;;;;;;;5083400;28;20052;-73
2023/12/13 03:06:18;;;;;;;11.25;10.35;;;;;;;;;;5083501;28;20051;-73
2023/12/13 03:08:50;;;;;;;13.07;12.10;;;;;;;;;;5083163;28;20075;-72
2023/12/13 03:11:20;;;;;;;11.93;11.13;;;;;;;;;;5082070;28;20048;-73
2023/12/13 03:13:51;;;;;;;11.63;10.80;;;;;;;;;;5083606;28;20055;-73
2023/12/13 03:16:21;;;;;;;13.55;12.75;;;;;;;;;;5083451;28;20044;-73
2023/12/13 03:18:53;;;;;;;12.88;11.88;;;;;;;;;;5081429;28;20082;-72
2023/12/13 03:21:23;;;;;;;12.32;11.43;;;;;;;;;;5083459;28;20055;-74
2023/12/13 03:23:54;;;;;;;12.73;11.57;;;;;;;;;;5083330;28;20059;-73
2023/12/13 03:26:27;;;;;;;13.10;12.15;;;;;;;;;;5083194;28;20055;-73
2023/12/13 03:28:58;;;;;;;13.73;12.88;;;;;;;;;;5083207;28;20082;-74
2023/12/13 03:31:28;;;;;;;13.95;13.13;;;;;;;;;;5082547;28;20059;-74
2023/12/13 03:34:00;;;;;;;10.60;9.75;;;;;;;;;;5082840;28;20036;-73
2023/12/13 03:36:31;;;;;;;14.57;13.68;;;;;;;;;;5082983;28;20052;-72
2023/12/13 03:39:01;;;;;;;12.70;11.77;;;;;;;;;;5082547;28;20055;-73
2023/12/13 03:41:32;;;;;;;15.05;13.98;;;;;;;;;;5083449;28;20047;-73
2023/12/13 03:44:02;;;;;;;12.65;11.85;;;;;;;;;;5082866;28;20051;-73
2023/12/13 03:46:32;;;;;;;13.35;12.48;;;;;;;;;;5083156;28;20051;-73
2023/12/13 03:49:06;;;;;;;13.07;12.18;;;;;;;;;;5083035;28;21151;-73
2023/12/13 03:51:37;;;;;;;12.70;11.90;;;;;;;;;;5082872;28;20055;-73
2023/12/13 03:54:08;;;;;;;13.90;12.73;;;;;;;;;;5082578;28;20499;-73
2023/12/13 03:56:37;;;;;;;12.63;11.73;;;;;;;;;;5082144;28;20051;-73
2023/12/13 03:59:09;;;;;;;13.90;12.88;;;;;;;;;;5082802;28;20040;-74
2023/12/13 04:01:39;;;;;;;12.50;11.70;;;;;;;;;;5081028;28;20070;-72
2023/12/13 04:04:09;;;;;;;13.20;12.20;;;;;;;;;;5082294;28;20063;-73
2023/12/13 04:06:40;;;;;;;13.50;12.50;;;;;;;;;;5082132;28;20044;-73
2023/12/13 04:09:10;;;;;;;12.40;11.63;;;;;;;;;;5082856;28;20044;-73
2023/12/13 04:11:41;;;;;;;14.38;13.55;;;;;;;;;;5082243;28;20574;-73
2023/12/13 04:14:11;;;;;;;13.45;12.48;;;;;;;;;;5081817;28;20505;-73
2023/12/13 04:16:41;;;;;;;14.25;13.07;;;;;;;;;;5082223;28;20048;-73
2023/12/13 04:19:13;;;;;;;14.98;13.65;;;;;;;;;;5080326;28;20047;-73
2023/12/13 04:21:43;;;;;;;15.93;15.00;;;;;;;;;;5080887;28;20056;-73
2023/12/13 04:24:14;;;;;;;14.23;12.93;;;;;;;;;;5081897;28;20070;-72
2023/12/13 04:26:44;;;;;;;15.27;13.82;;;;;;;;;;5079995;28;20062;-73
2023/12/13 04:29:14;;;;;;;11.60;10.82;;;;;;;;;;5082425;28;20402;-73
2023/12/13 04:31:44;;;;;;;14.50;13.70;;;;;;;;;;5081495;28;20048;-72
2023/12/13 04:34:15;;;;;;;12.82;11.75;;;;;;;;;;5082749;28;20078;-73
2023/12/13 04:36:45;;;;;;;13.23;12.43;;;;;;;;;;5082587;28;20032;-73
2023/12/13 04:39:16;;;;;;;12.82;11.88;;;;;;;;;;5083022;28;20041;-73
2023/12/13 04:41:46;;;;;;;12.82;11.90;;;;;;;;;;5081139;28;20055;-73
2023/12/13 04:44:17;;;;;;;14.05;13.15;;;;;;;;;;5081299;28;20675;-73
2023/12/13 04:46:49;;;;;;;11.90;10.93;;;;;;;;;;5079933;28;20048;-73
2023/12/13 04:49:20;;;;;;;11.82;10.70;;;;;;;;;;5081416;28;20059;-73
2023/12/13 04:51:51;;;;;;;11.77;10.98;;;;;;;;;;5081675;28;20048;-73
2023/12/13 04:54:22;;;;;;;13.77;12.85;;;;;;;;;;5081646;28;20028;-73
2023/12/13 04:56:53;;;;;;;12.18;11.20;;;;;;;;;;5081054;28;20048;-73
2023/12/13 04:59:23;;;;;;;14.45;13.45;;;;;;;;;;5081329;28;20048;-72
2023/12/13 05:01:53;;;;;;;12.80;11.98;;;;;;;;;;5080958;28;20052;-73
2023/12/13 05:04:24;;;;;;;12.05;11.35;;;;;;;;;;5081076;28;20055;-74
2023/12/13 05:06:55;;;;;;;12.50;11.70;;;;;;;;;;5081480;28;20054;-73
2023/12/13 05:09:25;;;;;;;12.60;11.80;;;;;;;;;;5081357;28;20043;-73
2023/12/13 05:11:56;;;;;;;12.43;11.63;;;;;;;;;;5082001;28;20054;-73
2023/12/13 05:14:26;;;;;;;13.15;12.13;;;;;;;;;;5081466;28;20032;-73
2023/12/13 05:16:56;;;;;;;12.15;11.25;;;;;;;;;;5080907;28;20059;-73
2023/12/13 05:19:27;;;;;;;13.05;11.95;;;;;;;;;;5080673;28;20498;-72
2023/12/13 05:21:58;;;;;;;14.10;13.15;;;;;;;;;;5081011;28;20051;-73
2023/12/13 05:24:27;;;;;;;14.43;13.43;;;;;;;;;;5081348;28;20051;-73
2023/12/13 05:26:58;;;;;;;12.80;11.90;;;;;;;;;;5080976;28;20051;-73
2023/12/13 05:29:28;;;;;;;15.30;14.18;;;;;;;;;;5080391;28;20556;-73
2023/12/13 05:31:59;;;;;;;13.80;12.68;;;;;;;;;;5081200;28;20055;-73
2023/12/13 05:34:29;;;;;;;14.77;13.68;;;;;;;;;;5081275;28;20048;-73
2023/12/13 05:37:00;;;;;;;15.73;14.55;;;;;;;;;;5081700;28;20044;-73
2023/12/13 05:39:30;;;;;;;15.38;14.27;;;;;;;;;;5080944;28;20051;-73
2023/12/13 05:42:00;;;;;;;14.88;13.77;;;;;;;;;;5081726;28;20067;-73
2023/12/13 05:44:31;;;;;;;13.52;12.52;;;;;;;;;;5081944;28;20055;-73
2023/12/13 05:47:00;;;;;;;13.90;13.07;;;;;;;;;;5081188;28;20055;-73
2023/12/13 05:49:30;;;;;;;14.52;13.32;;;;;;;;;;5080961;28;20040;-72
2023/12/13 05:52:00;;;;;;;14.90;13.73;;;;;;;;;;5081298;28;20048;-72
2023/12/13 05:54:31;;;;;;;15.43;14.52;;;;;;;;;;5081044;28;20048;-73
2023/12/13 05:57:01;;;;;;;18.75;17.55;;;;;;;;;;5080682;28;20458;-73
2023/12/13 05:59:31;;;;;;;12.55;11.55;;;;;;;;;;5081050;28;20418;-73
2023/12/13 06:02:00;;;;;;;15.55;14.52;;;;;;;;;;5079274;28;20067;-72
2023/12/13 06:04:31;;;;;;;16.33;15.32;;;;;;;;;;5080760;28;20056;-73
2023/12/13 06:07:01;;;;;;;12.13;11.32;;;;;;;;;;5081160;28;20646;-73
2023/12/13 06:09:32;;;;;;;11.50;10.77;;;;;;;;;;5080595;28;20635;-72
2023/12/13 06:12:06;;;;;;;15.32;13.98;;;;;;;;;;5081484;28;20410;-73
2023/12/13 06:14:36;;;;;;;15.68;14.23;;;;;;;;;;5084483;28;20048;-73
2023/12/13 06:17:06;;;;;;;14.30;13.38;;;;;;;;;;5084831;28;20522;-73
2023/12/13 06:19:36;;;;;;;17.88;16.67;;;;;;;;;;5083226;28;20510;-72
2023/12/13 06:22:12;;;;;;;17.52;16.27;;;;;;;;;;5084471;28;20056;-73
2023/12/13 06:24:43;;;;;;;15.30;14.05;;;;;;;;;;5084523;28;20044;-72
2023/12/13 06:27:13;;;;;;;20.65;19.27;;;;;;;;;;5084792;28;20040;-73
2023/12/13 06:29:44;;;;;;;19.45;18.17;;;;;;;;;;5084782;28;20044;-73
2023/12/13 06:32:15;;;;;;;20.17;18.95;;;;;;;;;;5084858;28;20533;-72
2023/12/13 06:34:47;;;;;;;20.42;18.75;;;;;;;;;;5084286;28;20048;-73
2023/12/13 06:37:19;;;;;;;20.05;18.83;;;;;;;;;;5084947;28;20048;-73
2023/12/13 06:39:50;;;;;;;15.52;14.52;;;;;;;;;;5084086;28;20044;-73
2023/12/13 06:42:21;;;;;;;19.80;18.52;;;;;;;;;;5084421;28;20067;-73
2023/12/13 06:44:52;;;;;;;20.27;19.00;;;;;;;;;;5082998;28;20541;-72
2023/12/13 06:47:22;;;;;;;15.80;14.80;;;;;;;;;;5084998;28;20518;-73
2023/12/13 06:49:55;;;;;;;15.85;14.60;;;;;;;;;;5084299;28;20044;-72
2023/12/13 06:52:27;;;;;;;20.27;18.20;;;;;;;;;;5083528;28;20055;-73
2023/12/13 06:54:57;;;;;;;19.02;17.92;;;;;;;;;;5086151;28;20070;-73
2023/12/13 06:57:28;;;;;;;13.32;12.50;;;;;;;;;;5085004;28;20419;-73
2023/12/13 06:59:58;;;;;;;13.70;12.68;;;;;;;;;;5084150;28;20058;-73
2023/12/13 07:02:29;;;;;;;18.00;16.90;;;;;;;;;;5083575;28;20056;-73
2023/12/13 07:05:00;;;;;;;20.48;19.20;;;;;;;;;;5084479;28;20052;-72
2023/12/13 07:07:30;;;;;;;16.33;15.38;;;;;;;;;;5084262;28;20537;-73
2023/12/13 07:10:01;;;;;;;17.80;16.80;;;;;;;;;;5083020;28;20061;-73
2023/12/13 07:12:32;;;;;;;20.13;18.83;;;;;;;;;;5083306;28;20052;-73
2023/12/13 07:15:03;;;;;;;20.98;19.77;;;;;;;;;;5081267;28;20051;-73
2023/12/13 07:17:33;;;;;;;17.88;16.80;;;;;;;;;;5083092;28;20048;-73
2023/12/13 07:20:05;;;;;;;18.95;17.77;;;;;;;;;;5083534;28;20044;-72
2023/12/13 07:22:36;;;;;;;20.83;19.63;;;;;;;;;;5083198;28;20052;-73
2023/12/13 07:25:08;;;;;;;16.63;15.52;;;;;;;;;;5083019;28;20040;-72
2023/12/13 07:27:38;;;;;;;19.10;17.92;;;;;;;;;;5082753;28;20044;-73
2023/12/13 07:30:08;;;;;;;20.05;18.85;;;;;;;;;;5083407;28;20054;-73
2023/12/13 07:32:43;;;;;;;21.08;19.88;;;;;;;;;;5083349;28;20043;-72
2023/12/13 07:35:14;;;;;;;21.65;20.15;;;;;;;;;;5083416;28;20040;-73
2023/12/13 07:37:48;;;;;;;19.30;18.20;;;;;;;;;;5082796;28;20503;-73
2023/12/13 07:40:18;;;;;;;24.35;22.90;;;;;;;;;;5083335;28;20066;-73
2023/12/13 07:42:48;;;;;;;19.75;18.55;;;;;;;;;;5083492;28;20395;-73
2023/12/13 07:45:20;;;;;;;18.75;17.58;;;;;;;;;;5082654;28;20051;-73
2023/12/13 07:47:51;;;;;;;20.52;19.25;;;;;;;;;;5083761;28;20083;-72
2023/12/13 07:50:42;;;;;;;20.88;19.55;;;;;;;;;;5082214;28;20047;-73
2023/12/13 07:53:13;;;;;;;18.92;17.65;;;;;;;;;;5082421;28;20573;-73
2023/12/13 07:55:43;;;;;;;20.65;19.05;;;;;;;;;;5082583;28;20059;-73
2023/12/13 07:58:15;;;;;;;14.25;13.20;;;;;;;;;;5081270;28;20399;-73
2023/12/13 08:00:45;;;;;;;20.00;18.88;;;;;;;;;;5082263;28;20047;-72
2023/12/13 08:03:15;;;;;;;17.63;16.52;;;;;;;;;;5082343;28;20062;-73
2023/12/13 08:05:46;;;;;;;16.00;15.00;;;;;;;;;;5082836;28;20048;-73
2023/12/13 08:08:16;;;;;;;21.35;20.05;;;;;;;;;;5081976;28;20063;-74
2023/12/13 08:10:46;;;;;;;15.85;14.50;;;;;;;;;;5081423;28;20522;-73
2023/12/13 08:13:18;;;;;;;16.38;15.23;;;;;;;;;;5082731;28;20055;-73
2023/12/13 08:15:48;;;;;;;17.25;16.25;;;;;;;;;;5082955;28;20044;-72
2023/12/13 08:18:18;;;;;;;20.70;19.15;;;;;;;;;;5082358;28;20070;-73
2023/12/13 08:20:49;;;;;;;20.42;19.27;;;;;;;;;;5081560;28;20044;-72
2023/12/13 08:23:19;;;;;;;21.08;19.77;;;;;;;;;;5081638;28;20059;-72
2023/12/13 08:25:50;;;;;;;16.80;15.75;;;;;;;;;;5081716;28;20055;-73
2023/12/13 08:28:21;;;;;;;19.30;18.10;;;;;;;;;;5082346;28;20039;-72
2023/12/13 08:30:51;;;;;;;20.30;18.85;;;;;;;;;;5082373;28;20048;-72
2023/12/13 08:33:21;;;;;;;20.42;18.98;;;;;;;;;;5080737;28;20044;-73
2023/12/13 08:35:53;;;;;;;19.35;17.73;;;;;;;;;;5081718;28;20043;-72
2023/12/13 08:38:23;;;;;;;20.42;18.67;;;;;;;;;;5081509;28;20056;-73
2023/12/13 08:40:53;;;;;;;18.00;16.70;;;;;;;;;;5081531;28;20040;-72
2023/12/13 08:43:24;;;;;;;20.02;18.58;;;;;;;;;;5081577;28;20048;-72
2023/12/13 08:45:54;;;;;;;16.05;14.90;;;;;;;;;;5081782;28;20040;-73
2023/12/13 08:48:25;;;;;;;16.92;15.80;;;;;;;;;;5081997;28;20044;-73
2023/12/13 08:50:56;;;;;;;18.90;17.65;;;;;;;;;;5081998;28;20048;-73
2023/12/13 08:53:27;;;;;;;18.33;17.10;;;;;;;;;;5082084;28;20044;-73
2023/12/13 08:55:57;;;;;;;18.30;16.73;;;;;;;;;;5082026;28;20114;-75
2023/12/13 08:58:31;;;;;;;19.25;17.95;;;;;;;;;;5081957;28;20524;-74
2023/12/13 09:01:01;;;;;;;17.92;16.73;;;;;;;;;;5081903;28;20115;-73
2023/12/13 09:03:31;;;;;;;22.08;20.42;;;;;;;;;;5079939;28;20700;-72
2023/12/13 09:06:05;;;;;;;15.20;13.95;;;;;;;;;;5081790;28;20066;-72
2023/12/13 09:08:35;;;;;;;17.95;16.83;;;;;;;;;;5080972;28;20044;-74
2023/12/13 09:11:05;;;;;;;18.92;17.58;;;;;;;;;;5080052;28;20541;-73
2023/12/13 09:13:36;;;;;;;20.85;19.38;;;;;;;;;;5081261;28;20048;-73
2023/12/13 09:16:07;;;;;;;13.10;11.43;;;;;;;;;;5082087;28;20414;-73
2023/12/13 09:18:43;;;;;;;17.75;16.42;;;;;;;;;;5081352;28;20118;-73
2023/12/13 09:21:14;;;;;;;20.05;18.42;;;;;;;;;;5081627;28;20052;-73
2023/12/13 09:23:44;;;;;;;16.83;15.45;;;;;;;;;;5081420;28;20510;-74
2023/12/13 09:26:15;;;;;;;17.48;16.00;;;;;;;;;;5081414;28;20044;-73
2023/12/13 09:28:45;;;;;;;17.70;16.25;;;;;;;;;;5081087;28;20055;-72
2023/12/13 09:31:17;;;;;;;18.13;17.00;;;;;;;;;;5081443;28;20098;-74
2023/12/13 09:33:49;;;;;;;17.25;16.05;;;;;;;;;;5081021;28;20048;-73
2023/12/13 09:36:20;;;;;;;16.05;15.02;;;;;;;;;;5081567;28;20051;-73
2023/12/13 09:38:51;;;;;;;20.38;19.15;;;;;;;;;;5081321;28;20048;-73
2023/12/13 09:41:25;;;;;;;18.92;17.17;;;;;;;;;;5082172;28;20071;-76
2023/12/13 09:43:55;;;;;;;17.20;16.15;;;;;;;;;;5081569;28;20052;-72
2023/12/13 09:46:28;;;;;;;16.95;15.88;;;;;;;;;;5080957;28;20044;-72
2023/12/13 09:48:58;;;;;;;17.17;15.77;;;;;;;;;;5085137;28;20055;-73
2023/12/13 09:51:31;;;;;;;21.08;19.45;;;;;;;;;;5085189;28;20052;-73
2023/12/13 09:54:04;;;;;;;19.02;17.05;;;;;;;;;;5083046;28;20052;-73
2023/12/13 09:56:35;;;;;;;18.63;17.48;;;;;;;;;;5084227;28;20052;-73
2023/12/13 09:59:05;;;;;;;16.38;14.73;;;;;;;;;;5085340;28;20044;-73
2023/12/13 10:01:36;;;;;;;18.65;17.35;;;;;;;;;;5085351;28;20058;-74
2023/12/13 10:04:06;;;;;;;17.33;15.93;;;;;;;;;;5085288;28;20067;-74
2023/12/13 10:06:36;;;;;;;18.02;16.73;;;;;;;;;;5084708;28;20059;-76
2023/12/13 10:09:08;;;;;;;16.83;15.63;;;;;;;;;;5084427;28;20036;-73
2023/12/13 10:11:39;;;;;;;15.10;13.52;;;;;;;;;;5084463;28;20051;-73
2023/12/13 10:14:08;;;;;;;17.45;16.10;;;;;;;;;;5084565;28;20070;-74
2023/12/13 10:16:42;;;;;;;13.50;12.52;;;;;;;;;;5084667;28;20067;-73
2023/12/13 10:19:13;;;;;;;20.00;11.85;;;;;;;;;;5084251;28;20059;-74
2023/12/13 10:21:46;;;;;;;14.85;13.43;;;;;;;;;;5084056;28;20048;-73
2023/12/13 10:24:16;;;;;;;10.90;10.13;;;;;;;;;;5083131;28;20056;-77
2023/12/13 10:26:46;;;;;;;11.00;9.77;;;;;;;;;;5084987;28;20052;-75
2023/12/13 10:29:21;;;;;;;13.25;10.70;;;;;;;;;;5084974;28;20617;-73
2023/12/13 10:31:53;;;;;;;12.18;11.35;;;;;;;;;;5084253;28;20043;-73
2023/12/13 10:34:23;;;;;;;10.80;10.10;;;;;;;;;;5083944;28;20044;-73
2023/12/13 10:36:55;;;;;;;21.48;10.68;;;;;;;;;;5083129;28;20502;-73
2023/12/13 10:39:26;;;;;;;41.88;12.98;;;;;;;;;;5084113;28;20056;-73
2023/12/13 10:41:57;;;;;;;11.73;10.73;;;;;;;;;;5083898;28;20047;-74
2023/12/13 10:44:32;;;;;;;13.77;12.52;;;;;;;;;;5082681;28;20460;-73
2023/12/13 10:47:08;;;;;;;12.77;11.82;;;;;;;;;;5084447;28;20052;-73
2023/12/13 10:49:41;;;;;;;12.13;11.07;;;;;;;;;;5083857;28;20044;-75
2023/12/13 10:52:12;;;;;;;16.00;12.30;;;;;;;;;;5083012;28;20059;-73
2023/12/13 10:54:43;;;;;;;9.18;8.32;;;;;;;;;;5083308;28;20666;-73
2023/12/13 10:57:15;;;;;;;14.73;10.73;;;;;;;;;;5082500;28;20055;-74
2023/12/13 10:59:48;;;;;;;12.52;10.02;;;;;;;;;;5083899;28;20043;-74
2023/12/13 11:02:19;;;;;;;11.80;11.00;;;;;;;;;;5084323;28;20051;-74
2023/12/13 11:04:50;;;;;;;11.80;10.93;;;;;;;;;;5083529;28;20048;-73
2023/12/13 11:07:20;;;;;;;6.97;5.95;;;;;;;;;;5083402;28;20424;-73
2023/12/13 11:09:54;;;;;;;9.65;8.80;;;;;;;;;;5083187;28;20044;-74
2023/12/13 11:12:25;;;;;;;15.23;9.77;;;;;;;;;;5083694;28;20048;-73
2023/12/13 11:14:59;;;;;;;12.20;10.95;;;;;;;;;;5083445;28;20043;-73
2023/12/13 11:17:37;;;;;;;11.35;8.15;;;;;;;;;;5083497;28;20052;-73
2023/12/13 11:20:09;;;;;;;7.90;7.13;;;;;;;;;;5083047;28;20055;-73
2023/12/13 11:22:48;;;;;;;12.43;11.20;;;;;;;;;;5083261;28;20512;-74
2023/12/13 11:25:21;;;;;;;10.77;9.75;;;;;;;;;;5083255;28;20056;-74
2023/12/13 11:27:53;;;;;;;9.70;8.98;;;;;;;;;;5083759;28;20040;-76
2023/12/13 11:30:24;;;;;;;8.93;8.13;;;;;;;;;;5082903;28;20052;-74
2023/12/13 11:32:56;;;;;;;15.27;7.65;;;;;;;;;;5083100;28;20086;-73
2023/12/13 11:35:30;;;;;;;15.20;9.68;;;;;;;;;;5081960;28;20264;-74
2023/12/13 11:38:03;;;;;;;35.08;10.40;;;;;;;;;;5080664;28;20044;-74
2023/12/13 11:40:36;;;;;;;9.65;8.80;;;;;;;;;;5082495;28;20051;-75
2023/12/13 11:43:07;;;;;;;9.98;9.23;;;;;;;;;;5082716;28;20052;-74
2023/12/13 11:45:49;;;;;;;9.32;8.50;;;;;;;;;;5082785;28;20040;-73
2023/12/13 11:48:19;;;;;;;7.88;7.13;;;;;;;;;;5082487;28;20040;-74
2023/12/13 11:50:53;;;;;;;6.88;6.22;;;;;;;;;;5082512;28;20048;-75
2023/12/13 11:53:24;;;;;;;10.93;8.13;;;;;;;;;;5083534;28;20625;-74
2023/12/13 11:55:56;;;;;;;9.73;8.93;;;;;;;;;;5083314;28;20059;-74
2023/12/13 11:58:30;;;;;;;22.35;20.70;;;;;;;;;;5083502;28;20044;-74
2023/12/13 12:01:01;;;;;;;9.80;9.10;;;;;;;;;;5082392;28;20664;-73
2023/12/13 12:03:35;;;;;;;10.85;10.02;;;;;;;;;;5082829;28;20055;-73
2023/12/13 12:06:16;;;;;;;12.13;11.27;;;;;;;;;;5081289;28;20060;-74
2023/12/13 12:08:47;;;;;;;10.25;9.30;;;;;;;;;;5083649;28;20414;-73
2023/12/13 12:11:19;;;;;;;11.02;10.07;;;;;;;;;;5082614;28;20055;-74
2023/12/13 12:13:51;;;;;;;13.05;9.88;;;;;;;;;;5083034;28;20789;-73
2023/12/13 12:16:22;;;;;;;11.60;9.18;;;;;;;;;;5083230;28;20055;-76
2023/12/13 12:18:55;;;;;;;8.30;7.70;;;;;;;;;;5083432;28;20392;-74
2023/12/13 12:21:27;;;;;;;13.18;11.88;;;;;;;;;;5082461;28;20052;-75
2023/12/13 12:23:58;;;;;;;10.27;9.68;;;;;;;;;;5082739;28;20523;-73
2023/12/13 12:26:29;;;;;;;10.30;9.40;;;;;;;;;;5082457;28;20055;-74
2023/12/13 12:28:59;;;;;;;7.82;7.22;;;;;;;;;;5064367;28;20432;-74
2023/12/13 12:31:30;;;;;;;9.25;8.52;;;;;;;;;;5080336;28;20052;-74
2023/12/13 12:34:02;;;;;;;10.40;9.57;;;;;;;;;;5082157;28;20411;-74
2023/12/13 12:36:33;;;;;;;9.25;8.45;;;;;;;;;;5082301;28;20044;-74
2023/12/13 12:39:03;;;;;;;10.77;9.88;;;;;;;;;;5081638;28;20048;-73
2023/12/13 12:41:34;;;;;;;11.15;9.65;;;;;;;;;;5081396;28;20067;-74
2023/12/13 12:44:05;;;;;;;11.02;10.27;;;;;;;;;;5082142;28;20063;-75
2023/12/13 12:46:36;;;;;;;10.82;9.85;;;;;;;;;;5081885;28;20039;-77
2023/12/13 12:49:06;;;;;;;8.60;7.90;;;;;;;;;;5082011;28;20044;-74
2023/12/13 12:51:37;;;;;;;11.50;10.50;;;;;;;;;;5082107;28;20040;-74
2023/12/13 12:54:08;;;;;;;11.18;8.40;;;;;;;;;;5082143;28;20048;-74
2023/12/13 12:56:40;;;;;;;10.43;9.38;;;;;;;;;;5081707;28;20052;-74
2023/12/13 12:59:16;;;;;;;10.45;9.23;;;;;;;;;;5079444;28;20070;-76
2023/12/13 13:01:47;;;;;;;15.00;13.90;;;;;;;;;;5081933;28;20049;-74
2023/12/13 13:04:19;;;;;;;9.25;8.40;;;;;;;;;;5081319;28;20059;-74
2023/12/13 13:06:50;;;;;;;8.13;7.43;;;;;;;;;;5082672;28;20521;-74
2023/12/13 13:09:20;;;;;;;9.32;8.73;;;;;;;;;;5081872;28;20051;-74
2023/12/13 13:11:51;;;;;;;9.25;8.45;;;;;;;;;;5081611;28;20040;-74
2023/12/13 13:14:24;;;;;;;10.93;10.13;;;;;;;;;;5081420;28;20540;-75
2023/12/13 13:16:56;;;;;;;10.15;9.45;;;;;;;;;;5081298;28;20048;-75
2023/12/13 13:19:26;;;;;;;11.20;10.45;;;;;;;;;;5080846;28;20052;-79
2023/12/13 13:21:56;;;;;;;10.25;9.43;;;;;;;;;;5081031;28;20067;-74
2023/12/13 13:24:37;;;;;;;10.93;9.43;;;;;;;;;;5086034;28;20498;-74
2023/12/13 13:27:07;;;;;;;12.93;9.07;;;;;;;;;;5085331;28;20051;-74
2023/12/13 13:29:49;;;;;;;9.93;9.32;;;;;;;;;;5085543;28;20372;-74
2023/12/13 13:32:20;;;;;;;10.52;9.75;;;;;;;;;;5085339;28;20069;-75
2023/12/13 13:34:50;;;;;;;12.57;11.52;;;;;;;;;;5085203;28;20051;-77
2023/12/13 13:37:21;;;;;;;11.05;9.82;;;;;;;;;;5084927;28;20044;-74
2023/12/13 13:39:52;;;;;;;11.85;10.60;;;;;;;;;;5085338;28;20044;-74
2023/12/13 13:42:23;;;;;;;12.48;11.38;;;;;;;;;;5085205;28;20047;-74
2023/12/13 13:44:53;;;;;;;25.20;14.95;;;;;;;;;;5084883;28;20055;-74
2023/12/13 13:47:23;;;;;;;12.85;11.75;;;;;;;;;;5085299;28;20043;-75
2023/12/13 13:49:54;;;;;;;12.02;11.02;;;;;;;;;;5085074;28;20083;-74
2023/12/13 13:52:25;;;;;;;11.15;10.45;;;;;;;;;;5085668;28;20036;-74
2023/12/13 13:54:56;;;;;;;10.38;9.38;;;;;;;;;;5085666;28;20048;-74
2023/12/13 13:57:26;;;;;;;10.65;9.80;;;;;;;;;;5085915;28;20055;-74
2023/12/13 13:59:57;;;;;;;11.55;10.73;;;;;;;;;;5085503;28;20054;-73
2023/12/13 14:02:33;;;;;;;12.68;11.38;;;;;;;;;;5082453;28;20052;-74
2023/12/13 14:05:07;;;;;;;10.73;9.73;;;;;;;;;;5082764;28;20056;-73
2023/12/13 14:07:37;;;;;;;27.27;10.95;;;;;;;;;;5084676;28;20048;-74
2023/12/13 14:10:08;;;;;;;10.00;9.40;;;;;;;;;;5083104;28;20601;-74
2023/12/13 14:12:39;;;;;;;10.68;9.90;;;;;;;;;;5083339;28;20059;-74
2023/12/13 14:15:11;;;;;;;13.38;12.48;;;;;;;;;;5084440;28;20036;-74
2023/12/13 14:17:41;;;;;;;12.35;11.43;;;;;;;;;;5084436;28;20040;-75
2023/12/13 14:20:12;;;;;;;12.07;10.20;;;;;;;;;;5084110;28;20055;-75
2023/12/13 14:22:43;;;;;;;15.23;12.80;;;;;;;;;;5084488;28;20056;-75
2023/12/13 14:25:14;;;;;;;17.17;15.77;;;;;;;;;;5084693;28;20044;-75
2023/12/13 14:27:46;;;;;;;9.55;8.75;;;;;;;;;;5082666;28;20806;-74
2023/12/13 14:30:17;;;;;;;13.60;12.80;;;;;;;;;;5084297;28;20426;-74
2023/12/13 14:32:47;;;;;;;10.13;9.32;;;;;;;;;;5083920;28;20425;-73
2023/12/13 14:35:18;;;;;;;13.27;11.02;;;;;;;;;;5083682;28;20052;-74
2023/12/13 14:37:49;;;;;;;12.77;11.85;;;;;;;;;;5084700;28;20456;-75
2023/12/13 14:40:20;;;;;;;12.25;11.25;;;;;;;;;;5084289;28;20036;-75
2023/12/13 14:42:54;;;;;;;11.35;10.63;;;;;;;;;;5084539;28;20044;-75
2023/12/13 14:45:24;;;;;;;11.10;10.30;;;;;;;;;;5084319;28;20043;-75